Terminal Aerodrome Forecast
Issued by NWS Melbourne, FL

Home | Current Version | Previous Version | Text Only | Print | Product List | Glossary On
Versions: 1 2 3 4 5 6 7 8 9 10 11 12 13 14 15 16
000
FTUS42 KMLB 200536
TAFDAB
TAF
KDAB 200536Z 2006/2106 19003KT P6SM FEW050 SCT250
     FM201400 08004KT P6SM FEW030 BKN250
     FM201800 08009KT P6SM FEW035 BKN200
     FM210000 12004KT P6SM VCSH SCT035 SCT150 OVC200=

USA.gov is the U.S. government's official web portal to all federal, state and local government web resources and services.